Capitol Logistics 264


KCLT
Charlotte/Douglas International Airport
Charlotte, North Carolina, US
KMIA
Miami International Airport
Miami, Florida, US

Route Details

Aircraft Information
Primary: Boeing 767-300BDSF
Backup: Not Available
Route Data
Distance: 567nm
Sched. Duration: 1h 56m
Avg. Duration: 1h 44m (-11m)
Times Flown: 7
Recm'd Route: ICONS4 NOOKS WURFL Q83 JEVED Q97 KENLL OMN HILEY7
Planned Altitude: 36,000ft
Origin Wx: KCLT 291152Z 16022G28KT 4SM -RA BR BKN010 OVC017 22/21 A2964 RMK AO2 PK WND 15028/1147 PRESFR SLP028 P0009 60009 70043 T02220211 10222 20206 58059 $
Dest. Wx: KMIA 291153Z 13004KT 10SM SCT020 27/24 A2997 RMK AO2 SLP149 60001 70001 T02720244 10278 20267 53010 $
Notes:

Financial History
Total Freight: 598,558lbs
Average Load: 85,508lbs/flt
Fuel Used: 123,720lbs
Avg. Fuel Used: 17,674lbs/flt
Fuel Expense: $103,925
Avg. Fuel Expense: $14,846
Avg. Fuel Cost: $0.84/lbs
Total Gross Income: $818,458
Pilot Pay: $1,623
Total Expenses: $88,757
Total Revenue: $623,194
Average Revenue: $116,922.56